Airfield :
LOGIN :

Register | Disclaimer

   EN    FR    IT 

 










Legend :    VFR   Marginal VFR   IFR   Intensive IFR   Very Intensive IFR
Visi :
Ceiling :
>= 8 km
>= 3000ft
5 to 8 km
1000 to 3000 ft
1500m to 5 km
500 to 1000 ft
800 to 1500m
200 to 500 ft
< 800m
< 200 ft
Symbols :   Thunderstorms  Fog  Heavy snow  Heavy precipitations  Wind > 20 kt
SIGMETs :     Misc.  Thunderstorms  Icing  Turbulence  Mountain Waves  Volcanic Ashes






- Airport Elevation : 665 ft
- IATA code : NOC


EIKN - Connaught / Knock- Ireland West

CURRENT METAR :
  • 221100Z 19008KT 150V240 9999 -DZ BKN006 BKN030 09/09 Q1018 BECMG BKN020

EXPIRED METARs :
  • 221030Z 19009KT 150V240 9999 BKN005 BKN032 09/08 Q1018 NOSIG
  • 221000Z 19008KT 150V240 9999 BKN002 BKN025 08/08 Q1018 NOSIG
  • 220930Z 19007KT 150V230 0900 FG VV002 08/08 Q1018 BECMG 5000
  • 220900Z 18007KT 150V230 0600 FG VV002 07/07 Q1018 BECMG 5000
  • 220830Z 18006KT 150V220 0250 FG BKN002 SCT025 BKN180 07/07 Q1018 TEMPO 0800 BKN001

TAF AMD TAF EIKN
Valid from the 22 at 09:00 until the 23 at 06:00 UTC


220915Z 2209/2306 18008KT 0600 FG BKN002
BECMG 2209/2211 9999 NSW BKN020
BECMG 2211/2213 21012KT
BECMG 2219/2221 18013KT
PROB40
TEMPO 2220/2222 BKN008
BECMG 2302/2304 18015G25KT
TEMPO 2303/2306 BKN008



MET'MAP, your aeronautical weather chart ! - Copyright ORBIFLY December 2007 - Disclaimer

ORBIFLY MET'MAP TEAM :

Programming & Development : Alexandra Zaïnal
Concept & Development : Baudouin d'Aumeries
Co-Development & Prog : Marc-Olivier Méhu
Technical & hardware support : Manuel Goepfert

Contact : metmap@orbifly.com




SOURCES & CREDITS :

   NOAA